Time;durP1;ratioP1;P1;durP2;ratioP2;P2;SDS_P1;SDS_P2;PMS_P1;PMS_P2;Temp;Humidity;BMP_temperature;BMP_pressure;BME280_temperature;BME280_humidity;BME280_pressure;Samples;Min_cycle;Max_cycle;Signal;HPM_P1;HPM_P2
2022/05/28 00:00:17;;;;;;;0.70;0.70;;;16.70;99.90;;;;;;5033799;28;20205;-62
2022/05/28 00:02:44;;;;;;;0.70;0.70;;;16.70;99.90;;;;;;5030327;28;20777;-63
2022/05/28 00:05:11;;;;;;;0.70;0.70;;;16.70;99.90;;;;;;5034895;28;20295;-63
2022/05/28 00:07:39;;;;;;;0.70;0.70;;;16.80;99.90;;;;;;5033488;28;20236;-64
2022/05/28 00:10:07;;;;;;;0.80;0.80;;;16.70;99.90;;;;;;5032718;28;20212;-64
2022/05/28 00:12:35;;;;;;;0.90;0.90;;;16.60;99.90;;;;;;5033222;28;20211;-64
2022/05/28 00:15:03;;;;;;;0.90;0.90;;;16.70;99.90;;;;;;5032382;28;20196;-63
2022/05/28 00:17:30;;;;;;;0.90;0.90;;;16.70;99.90;;;;;;5031643;28;20277;-63
2022/05/28 00:19:57;;;;;;;0.80;0.80;;;16.80;99.90;;;;;;5033080;28;20232;-62
2022/05/28 00:22:24;;;;;;;0.80;0.80;;;16.80;99.90;;;;;;5032926;28;21521;-65
2022/05/28 00:24:50;;;;;;;0.70;0.70;;;16.90;99.90;;;;;;5034530;28;20275;-64
2022/05/28 00:27:18;;;;;;;0.70;0.70;;;16.90;99.90;;;;;;5034809;28;20308;-65
2022/05/28 00:29:46;;;;;;;0.70;0.70;;;16.90;99.90;;;;;;5032941;28;20208;-62
2022/05/28 00:32:13;;;;;;;0.80;0.80;;;16.90;99.90;;;;;;5034046;28;20304;-64
2022/05/28 00:34:40;;;;;;;0.80;0.80;;;16.90;99.90;;;;;;5033583;28;20275;-64
2022/05/28 00:37:08;;;;;;;0.73;0.73;;;17.00;99.90;;;;;;5033327;28;20201;-63
2022/05/28 00:39:35;;;;;;;1.53;0.90;;;17.00;99.90;;;;;;5033699;28;20209;-63
2022/05/28 00:42:02;;;;;;;0.73;0.73;;;16.90;99.90;;;;;;5033501;28;20203;-63
2022/05/28 00:44:29;;;;;;;0.90;0.90;;;16.90;99.90;;;;;;5033832;28;20243;-62
2022/05/28 00:46:59;;;;;;;1.00;1.00;;;16.90;99.90;;;;;;5033757;28;20288;-62
2022/05/28 00:49:30;;;;;;;0.80;0.80;;;16.90;99.90;;;;;;5036908;28;20227;-62
2022/05/28 00:52:00;;;;;;;0.90;0.90;;;16.90;99.90;;;;;;5036235;28;20205;-63
2022/05/28 00:54:30;;;;;;;1.00;1.00;;;16.80;99.90;;;;;;5038703;28;20203;-63
2022/05/28 00:56:58;;;;;;;0.80;0.80;;;16.80;99.90;;;;;;5040603;28;20220;-64
2022/05/28 00:59:25;;;;;;;0.90;0.90;;;16.80;99.90;;;;;;5041067;28;20290;-63
2022/05/28 01:01:56;;;;;;;0.90;0.90;;;16.80;99.90;;;;;;5042967;28;20211;-63
2022/05/28 01:04:33;;;;;;;0.87;0.87;;;16.70;99.90;;;;;;5042492;28;20205;-62
2022/05/28 01:07:06;;;;;;;0.90;0.90;;;16.70;99.90;;;;;;5041653;28;20207;-63
2022/05/28 01:09:44;;;;;;;0.90;0.90;;;16.70;99.90;;;;;;5032551;28;20208;-62
2022/05/28 01:12:15;;;;;;;0.90;0.90;;;16.60;99.90;;;;;;5042550;28;20200;-63
2022/05/28 01:14:48;;;;;;;0.80;0.80;;;16.60;99.90;;;;;;5044441;28;20227;-62
2022/05/28 01:17:19;;;;;;;0.90;0.90;;;16.60;99.90;;;;;;5043047;28;20231;-63
2022/05/28 01:19:59;;;;;;;0.80;0.80;;;16.60;99.90;;;;;;5043467;28;20568;-63
2022/05/28 01:22:40;;;;;;;0.93;0.93;;;16.60;99.90;;;;;;5027814;28;20299;-64
2022/05/28 01:25:15;;;;;;;0.90;0.90;;;16.50;99.90;;;;;;5030378;28;20601;-63
2022/05/28 01:27:50;;;;;;;1.00;1.00;;;16.40;99.90;;;;;;5036475;28;20248;-63
2022/05/28 01:30:19;;;;;;;1.13;1.00;;;16.40;99.90;;;;;;5044531;28;20199;-62
2022/05/28 01:32:51;;;;;;;0.90;0.90;;;16.40;99.90;;;;;;5043286;28;20296;-62
2022/05/28 01:35:19;;;;;;;0.90;0.90;;;16.40;99.90;;;;;;5044535;28;20789;-62
2022/05/28 01:37:49;;;;;;;1.03;1.03;;;16.40;99.90;;;;;;5032467;28;20220;-63
2022/05/28 01:40:17;;;;;;;0.80;0.80;;;16.40;99.90;;;;;;5035470;28;20219;-64
2022/05/28 01:42:49;;;;;;;0.80;0.80;;;16.30;99.90;;;;;;5032766;28;20243;-63
2022/05/28 01:45:18;;;;;;;1.10;1.10;;;16.30;99.90;;;;;;5051029;28;20258;-63
2022/05/28 01:47:45;;;;;;;1.00;1.00;;;16.30;99.90;;;;;;5061689;28;20251;-63
2022/05/28 01:50:16;;;;;;;0.90;0.90;;;16.20;99.90;;;;;;5041511;28;20232;-63
2022/05/28 01:52:43;;;;;;;0.85;0.85;;;16.20;99.90;;;;;;5041191;28;20200;-64
2022/05/28 01:55:14;;;;;;;1.00;1.00;;;16.20;99.90;;;;;;5030142;28;20300;-65
2022/05/28 01:57:41;;;;;;;0.90;0.90;;;16.10;99.90;;;;;;5040749;28;20234;-63
2022/05/28 02:00:10;;;;;;;1.00;1.00;;;16.10;99.90;;;;;;5036774;28;20296;-62
2022/05/28 02:02:38;;;;;;;1.03;1.03;;;16.00;99.90;;;;;;5041443;28;20200;-63
2022/05/28 02:05:06;;;;;;;1.05;1.05;;;16.00;99.90;;;;;;5042376;28;20323;-63
2022/05/28 02:07:33;;;;;;;0.90;0.90;;;16.00;99.90;;;;;;5032230;28;20310;-63
2022/05/28 02:10:05;;;;;;;0.80;0.80;;;15.90;99.90;;;;;;5044597;28;20204;-63
2022/05/28 02:12:34;;;;;;;0.90;0.90;;;15.90;99.90;;;;;;5028423;28;20227;-62
2022/05/28 02:15:18;;;;;;;0.97;0.97;;;15.90;99.90;;;;;;5048963;28;20224;-62
2022/05/28 02:17:49;;;;;;;1.03;1.03;;;15.90;99.90;;;;;;5048601;28;20256;-63
2022/05/28 02:20:25;;;;;;;1.03;1.03;;;15.80;99.90;;;;;;5052552;28;20257;-62
2022/05/28 02:22:58;;;;;;;0.90;0.90;;;15.80;99.90;;;;;;5051087;28;20263;-62
2022/05/28 02:25:29;;;;;;;1.00;1.00;;;15.80;99.90;;;;;;5049327;28;20706;-63
2022/05/28 02:27:58;;;;;;;0.90;0.90;;;15.80;99.90;;;;;;5045416;28;20282;-63
2022/05/28 02:30:26;;;;;;;0.97;0.97;;;15.70;99.90;;;;;;5043337;28;20247;-65
2022/05/28 02:33:00;;;;;;;1.00;1.00;;;15.70;99.90;;;;;;5043617;28;20260;-62
2022/05/28 02:35:27;;;;;;;0.90;0.90;;;15.70;99.90;;;;;;5044050;28;20279;-64
2022/05/28 02:37:54;;;;;;;1.00;1.00;;;15.70;99.90;;;;;;5044447;28;20680;-64
2022/05/28 02:40:21;;;;;;;1.10;1.10;;;15.70;99.90;;;;;;5042642;28;20208;-65
2022/05/28 02:42:48;;;;;;;1.00;1.00;;;15.70;99.90;;;;;;5044388;28;20295;-63
2022/05/28 02:45:15;;;;;;;1.03;1.03;;;15.60;99.90;;;;;;5041934;28;20230;-63
2022/05/28 02:47:44;;;;;;;1.10;1.10;;;15.60;99.90;;;;;;5043853;28;20986;-62
2022/05/28 02:50:11;;;;;;;1.15;1.05;;;15.50;99.90;;;;;;5046253;28;20203;-62
2022/05/28 02:52:38;;;;;;;1.10;1.10;;;15.50;99.90;;;;;;5047333;28;20291;-63
2022/05/28 02:55:06;;;;;;;1.00;1.00;;;15.40;99.90;;;;;;5049228;28;20227;-62
2022/05/28 02:57:33;;;;;;;0.93;0.93;;;15.50;99.90;;;;;;5041952;28;20224;-62
2022/05/28 03:00:00;;;;;;;0.90;0.90;;;15.40;99.90;;;;;;5051031;28;20218;-62
2022/05/28 03:02:28;;;;;;;1.07;1.07;;;15.40;99.90;;;;;;5042533;28;20320;-63
2022/05/28 03:04:57;;;;;;;1.17;1.17;;;15.40;99.90;;;;;;5050141;28;20243;-63
2022/05/28 03:07:24;;;;;;;1.17;1.10;;;15.30;99.90;;;;;;5045023;28;20289;-64
2022/05/28 03:09:51;;;;;;;1.37;1.27;;;15.30;99.90;;;;;;5050812;28;20204;-63
2022/05/28 03:12:18;;;;;;;1.00;1.00;;;15.20;99.90;;;;;;5044877;28;20239;-64
2022/05/28 03:14:45;;;;;;;1.50;1.40;;;15.20;99.90;;;;;;5044325;28;20200;-64
2022/05/28 03:17:12;;;;;;;1.37;1.27;;;15.20;99.90;;;;;;5054730;28;20255;-62
2022/05/28 03:19:39;;;;;;;1.33;1.23;;;15.20;99.90;;;;;;5050059;28;20681;-63
2022/05/28 03:22:07;;;;;;;1.47;1.30;;;15.10;99.90;;;;;;5051047;28;20211;-62
2022/05/28 03:24:34;;;;;;;1.37;1.27;;;15.00;99.90;;;;;;5052843;28;20307;-62
2022/05/28 03:27:01;;;;;;;1.13;1.13;;;14.90;99.90;;;;;;5044134;28;20573;-63
2022/05/28 03:29:28;;;;;;;1.47;1.37;;;14.80;99.90;;;;;;5047842;28;20209;-64
2022/05/28 03:31:56;;;;;;;1.60;1.48;;;14.80;99.90;;;;;;5039660;28;20221;-62
2022/05/28 03:34:23;;;;;;;2.07;1.30;;;14.70;99.90;;;;;;5047515;28;20821;-64
2022/05/28 03:36:50;;;;;;;1.57;1.33;;;14.60;99.90;;;;;;5040581;28;20232;-63
2022/05/28 03:39:18;;;;;;;1.17;1.07;;;14.60;99.90;;;;;;5042378;28;20571;-64
2022/05/28 03:41:45;;;;;;;1.00;1.00;;;14.60;99.90;;;;;;5039922;28;20208;-62
2022/05/28 03:44:12;;;;;;;1.37;1.27;;;14.60;99.90;;;;;;5040714;28;20745;-64
2022/05/28 03:46:40;;;;;;;1.03;1.00;;;14.60;99.90;;;;;;5044799;28;20311;-62
2022/05/28 03:49:13;;;;;;;1.27;1.23;;;14.60;99.90;;;;;;5039018;28;20599;-62
2022/05/28 03:51:40;;;;;;;1.20;1.10;;;14.50;99.90;;;;;;5046775;28;20286;-63
2022/05/28 03:54:07;;;;;;;1.80;1.20;;;14.40;99.90;;;;;;5037732;28;20646;-63
2022/05/28 03:56:39;;;;;;;1.17;1.07;;;14.30;99.90;;;;;;5043686;28;20623;-63
2022/05/28 03:59:07;;;;;;;1.43;1.20;;;14.20;99.90;;;;;;5037666;28;20222;-62
2022/05/28 04:01:34;;;;;;;1.37;1.13;;;14.20;99.90;;;;;;5031310;28;20263;-63
2022/05/28 04:04:02;;;;;;;1.30;1.20;;;14.10;99.90;;;;;;5041932;28;20225;-63
2022/05/28 04:06:29;;;;;;;1.17;1.07;;;14.00;99.90;;;;;;5045329;28;20298;-63
2022/05/28 04:08:56;;;;;;;1.50;1.30;;;14.00;99.90;;;;;;5044351;28;20236;-62
2022/05/28 04:11:23;;;;;;;2.10;1.30;;;13.90;99.90;;;;;;5042602;28;20201;-64
2022/05/28 04:13:51;;;;;;;2.00;1.27;;;13.80;99.90;;;;;;5044443;28;20264;-62
2022/05/28 04:16:18;;;;;;;1.17;1.17;;;13.80;99.90;;;;;;5038110;28;20208;-64
2022/05/28 04:18:45;;;;;;;1.30;1.20;;;13.80;99.90;;;;;;5048336;28;20231;-62
2022/05/28 04:21:11;;;;;;;1.50;1.20;;;13.80;99.90;;;;;;5045214;28;20275;-62
2022/05/28 04:23:38;;;;;;;1.05;1.05;;;13.80;99.90;;;;;;5044233;28;20214;-63
2022/05/28 04:26:06;;;;;;;1.10;1.10;;;13.90;99.90;;;;;;5046021;28;20216;-63
2022/05/28 04:28:32;;;;;;;3.70;1.30;;;13.90;99.90;;;;;;5044232;28;20219;-64
2022/05/28 04:31:01;;;;;;;1.10;1.10;;;13.90;99.90;;;;;;5046402;28;20662;-65
2022/05/28 04:33:28;;;;;;;0.90;0.90;;;14.00;99.90;;;;;;5044867;28;20630;-62
2022/05/28 04:35:54;;;;;;;1.10;1.00;;;14.00;99.90;;;;;;5045990;28;20206;-65
2022/05/28 04:38:23;;;;;;;1.10;1.10;;;14.00;99.90;;;;;;5043785;28;20314;-63
2022/05/28 04:40:50;;;;;;;1.40;1.13;;;14.00;99.90;;;;;;5046624;28;20309;-62
2022/05/28 04:43:18;;;;;;;1.30;1.20;;;13.90;99.90;;;;;;5045177;28;20222;-62
2022/05/28 04:45:45;;;;;;;1.33;1.20;;;14.00;99.90;;;;;;5046273;28;20718;-64
2022/05/28 04:48:14;;;;;;;1.30;1.20;;;13.90;99.90;;;;;;5044815;28;20243;-62
2022/05/28 04:50:41;;;;;;;2.10;1.47;;;13.80;99.90;;;;;;5046504;28;20654;-63
2022/05/28 04:53:08;;;;;;;1.37;1.27;;;13.90;99.90;;;;;;5041637;28;20204;-63
2022/05/28 04:55:37;;;;;;;1.40;1.30;;;13.90;99.90;;;;;;5036530;28;20263;-64
2022/05/28 04:58:04;;;;;;;1.40;1.30;;;13.90;99.90;;;;;;5038980;28;20277;-63
2022/05/28 05:00:31;;;;;;;1.50;1.40;;;13.90;99.90;;;;;;5034493;28;20230;-62
2022/05/28 05:02:58;;;;;;;1.17;1.07;;;13.80;99.90;;;;;;5038824;28;20291;-62
2022/05/28 05:05:27;;;;;;;1.30;1.20;;;13.80;99.90;;;;;;5038069;28;20729;-64
2022/05/28 05:07:54;;;;;;;1.43;1.33;;;13.80;99.90;;;;;;5039765;28;20247;-63
2022/05/28 05:10:21;;;;;;;1.30;1.20;;;13.80;99.90;;;;;;5040081;28;20295;-63
2022/05/28 05:12:48;;;;;;;1.37;1.27;;;13.90;99.90;;;;;;5031273;28;20263;-65
2022/05/28 05:15:15;;;;;;;1.43;1.33;;;13.90;99.90;;;;;;5064909;28;20630;-63
2022/05/28 05:17:42;;;;;;;1.67;1.50;;;14.10;99.90;;;;;;5045537;28;20248;-64
2022/05/28 05:20:11;;;;;;;1.67;1.57;;;14.20;99.90;;;;;;5042321;28;20687;-65
2022/05/28 05:22:40;;;;;;;1.40;1.30;;;14.30;99.90;;;;;;5046688;28;20239;-62
2022/05/28 05:25:08;;;;;;;1.57;1.47;;;14.30;99.90;;;;;;5043380;28;20224;-61
2022/05/28 05:27:35;;;;;;;1.53;1.43;;;14.30;99.90;;;;;;5044932;28;20270;-64
2022/05/28 05:30:02;;;;;;;1.77;1.40;;;14.30;99.90;;;;;;5040484;28;20211;-63
2022/05/28 05:32:29;;;;;;;1.40;1.30;;;14.40;99.90;;;;;;5044524;28;20299;-63
2022/05/28 05:34:56;;;;;;;1.37;1.27;;;14.50;99.90;;;;;;5046362;28;20229;-62
2022/05/28 05:37:23;;;;;;;1.60;1.50;;;14.70;99.90;;;;;;5043881;28;20280;-64
2022/05/28 05:39:51;;;;;;;1.47;1.37;;;14.70;99.90;;;;;;5046370;28;20204;-61
2022/05/28 05:42:18;;;;;;;1.60;1.50;;;14.80;99.90;;;;;;5044412;28;20229;-64
2022/05/28 05:44:46;;;;;;;1.40;1.30;;;14.90;99.90;;;;;;5046170;28;20315;-62
2022/05/28 05:47:13;;;;;;;1.37;1.33;;;14.90;99.90;;;;;;5044124;28;20231;-64
2022/05/28 05:49:39;;;;;;;1.63;1.53;;;15.10;99.90;;;;;;5045509;28;20235;-63
2022/05/28 05:52:07;;;;;;;1.47;1.37;;;15.20;99.90;;;;;;5044996;28;20284;-64
2022/05/28 05:54:34;;;;;;;1.23;1.23;;;15.40;99.90;;;;;;5032360;28;20204;-64
2022/05/28 05:57:03;;;;;;;1.77;1.67;;;15.60;99.90;;;;;;5042970;28;20283;-61
2022/05/28 05:59:30;;;;;;;1.17;1.17;;;15.70;99.90;;;;;;5045502;28;20208;-62
2022/05/28 06:01:57;;;;;;;1.40;1.30;;;15.70;99.90;;;;;;5045246;28;20208;-61
2022/05/28 06:04:24;;;;;;;1.60;1.50;;;15.80;99.90;;;;;;5047681;28;20230;-64
2022/05/28 06:06:51;;;;;;;1.35;1.25;;;15.90;99.90;;;;;;5049450;28;20212;-62
2022/05/28 06:09:18;;;;;;;1.43;1.23;;;16.00;99.90;;;;;;5047563;28;20228;-63
2022/05/28 06:11:45;;;;;;;1.33;1.23;;;16.00;99.90;;;;;;5047281;28;20701;-63
2022/05/28 06:14:13;;;;;;;1.37;1.27;;;15.90;99.90;;;;;;5041437;28;20288;-61
2022/05/28 06:16:40;;;;;;;1.10;1.10;;;15.90;99.90;;;;;;5043115;28;20287;-62
2022/05/28 06:19:08;;;;;;;0.90;0.90;;;15.80;99.90;;;;;;5036460;28;20260;-62
2022/05/28 06:21:35;;;;;;;1.40;1.27;;;15.90;99.90;;;;;;5042572;28;20291;-61
2022/05/28 06:24:03;;;;;;;1.60;1.20;;;16.00;99.90;;;;;;5042884;28;20239;-63
2022/05/28 06:26:30;;;;;;;1.20;1.13;;;16.20;99.90;;;;;;5040247;28;20589;-64
2022/05/28 06:28:57;;;;;;;1.33;1.23;;;16.30;99.90;;;;;;5049489;28;20234;-62
2022/05/28 06:31:25;;;;;;;1.37;1.27;;;16.50;99.90;;;;;;5046521;28;20283;-63
2022/05/28 06:33:52;;;;;;;1.00;1.00;;;16.50;99.90;;;;;;5049061;28;20291;-62
2022/05/28 06:36:19;;;;;;;1.20;1.10;;;16.50;99.90;;;;;;5044437;28;20581;-64
2022/05/28 06:38:46;;;;;;;1.03;1.03;;;16.40;99.90;;;;;;5048750;28;20220;-63
2022/05/28 06:41:13;;;;;;;1.33;1.20;;;16.40;99.90;;;;;;5046737;28;20330;-63
2022/05/28 06:43:41;;;;;;;0.97;0.97;;;16.40;99.90;;;;;;5045412;28;20218;-64
2022/05/28 06:46:09;;;;;;;2.50;1.17;;;16.30;99.90;;;;;;5041457;28;20226;-62
2022/05/28 06:48:38;;;;;;;0.70;0.70;;;16.30;99.90;;;;;;5039560;28;20228;-65
2022/05/28 06:51:05;;;;;;;1.20;1.10;;;16.10;99.90;;;;;;5034450;28;20235;-62
2022/05/28 06:53:35;;;;;;;1.20;1.10;;;15.90;99.90;;;;;;5038279;28;20200;-63
2022/05/28 06:56:02;;;;;;;1.07;1.07;;;15.80;99.90;;;;;;5036061;28;20646;-63
2022/05/28 06:58:29;;;;;;;1.47;1.03;;;15.60;99.90;;;;;;5038295;28;20314;-64
2022/05/28 07:00:59;;;;;;;1.40;1.13;;;15.70;99.90;;;;;;5032899;28;20292;-63
2022/05/28 07:03:27;;;;;;;0.90;0.90;;;15.70;99.90;;;;;;5036221;28;20618;-61
2022/05/28 07:05:57;;;;;;;1.47;1.13;;;15.60;99.90;;;;;;5042335;28;20220;-62
2022/05/28 07:08:24;;;;;;;1.10;1.00;;;15.80;99.90;;;;;;5044343;28;20256;-62
2022/05/28 07:10:53;;;;;;;1.10;1.10;;;16.00;99.90;;;;;;5044734;28;20228;-62
2022/05/28 07:13:22;;;;;;;0.90;0.90;;;16.20;99.90;;;;;;5040554;28;20288;-62
2022/05/28 07:15:49;;;;;;;1.00;1.00;;;16.30;99.90;;;;;;5035957;28;20604;-63
2022/05/28 07:18:16;;;;;;;0.80;0.80;;;16.30;99.90;;;;;;5031019;28;20625;-61
2022/05/28 07:20:44;;;;;;;0.90;0.90;;;16.50;99.90;;;;;;5034763;28;20200;-63
2022/05/28 07:23:14;;;;;;;1.17;1.00;;;16.70;99.90;;;;;;5035611;28;20204;-64
2022/05/28 07:25:42;;;;;;;1.10;1.10;;;16.70;99.90;;;;;;5049039;28;20337;-64
2022/05/28 07:28:28;;;;;;;1.00;1.00;;;16.80;99.90;;;;;;5044193;28;20323;-65
2022/05/28 07:30:57;;;;;;;1.33;1.23;;;16.80;99.90;;;;;;5041017;28;20215;-63
2022/05/28 07:33:25;;;;;;;0.90;0.90;;;16.90;99.90;;;;;;5043748;28;20666;-64
2022/05/28 07:35:53;;;;;;;1.03;1.03;;;17.20;99.90;;;;;;5046512;28;20626;-63
2022/05/28 07:38:21;;;;;;;1.00;1.00;;;17.20;99.90;;;;;;5042635;28;20289;-63
2022/05/28 07:40:48;;;;;;;1.00;1.00;;;17.20;99.90;;;;;;5040627;28;20295;-64
2022/05/28 07:43:15;;;;;;;1.10;1.10;;;17.10;99.90;;;;;;5043269;28;20214;-62
2022/05/28 07:45:44;;;;;;;1.25;1.15;;;17.10;99.90;;;;;;5042116;28;20677;-62
2022/05/28 07:48:12;;;;;;;0.90;0.90;;;17.10;99.90;;;;;;5045218;28;20315;-63
2022/05/28 07:50:39;;;;;;;0.90;0.90;;;16.90;99.90;;;;;;5041987;28;20296;-63
2022/05/28 07:53:07;;;;;;;1.10;1.10;;;17.00;99.90;;;;;;5048762;28;20276;-65
2022/05/28 07:55:36;;;;;;;1.17;1.07;;;17.10;99.90;;;;;;5031829;28;20287;-62
2022/05/28 07:58:07;;;;;;;1.00;1.00;;;17.20;99.90;;;;;;5042388;28;20224;-64
2022/05/28 08:00:38;;;;;;;1.10;1.00;;;17.50;99.90;;;;;;5041754;28;20292;-63
2022/05/28 08:03:05;;;;;;;0.90;0.90;;;17.60;99.90;;;;;;5036770;28;20245;-63
2022/05/28 08:05:32;;;;;;;0.93;0.93;;;17.50;99.90;;;;;;5048739;28;20579;-64
2022/05/28 08:07:59;;;;;;;1.00;1.00;;;17.50;99.90;;;;;;5040642;28;20270;-63
2022/05/28 08:10:26;;;;;;;1.17;1.17;;;17.60;99.90;;;;;;5049278;28;20230;-63
2022/05/28 08:12:54;;;;;;;1.03;1.00;;;17.70;99.90;;;;;;5040719;28;20209;-63
2022/05/28 08:15:21;;;;;;;1.00;1.00;;;17.90;99.90;;;;;;5044214;28;20264;-63
2022/05/28 08:17:48;;;;;;;1.08;1.00;;;17.90;99.90;;;;;;5047902;28;20235;-63
2022/05/28 08:20:15;;;;;;;1.03;1.03;;;18.00;99.90;;;;;;5053569;28;20265;-63
2022/05/28 08:25:26;;;;;;;1.47;1.00;;;17.90;99.90;;;;;;5043243;28;20701;-62
2022/05/28 08:27:54;;;;;;;0.73;0.73;;;17.90;99.90;;;;;;5047000;28;20225;-65
2022/05/28 08:30:21;;;;;;;1.00;1.00;;;18.10;99.90;;;;;;5037547;28;20204;-63
2022/05/28 08:32:48;;;;;;;1.17;1.00;;;18.50;99.90;;;;;;5043500;28;20243;-64
2022/05/28 08:35:15;;;;;;;1.00;1.00;;;18.30;99.90;;;;;;5042109;28;20311;-62
2022/05/28 08:37:42;;;;;;;0.87;0.87;;;18.10;99.90;;;;;;5044030;28;20773;-63
2022/05/28 08:40:10;;;;;;;0.87;0.87;;;18.10;99.90;;;;;;5042551;28;20293;-64
2022/05/28 08:42:38;;;;;;;1.00;1.00;;;18.10;99.90;;;;;;5043335;28;20211;-63
2022/05/28 08:45:09;;;;;;;0.90;0.90;;;18.20;99.90;;;;;;5044228;28;20345;-62
2022/05/28 08:47:40;;;;;;;1.13;1.03;;;18.30;99.90;;;;;;5031248;28;20223;-62
2022/05/28 08:50:08;;;;;;;0.95;0.95;;;18.30;99.90;;;;;;5041228;28;20315;-63
2022/05/28 08:52:41;;;;;;;0.80;0.80;;;18.30;99.90;;;;;;5031379;28;20204;-62
2022/05/28 08:55:13;;;;;;;1.00;1.00;;;18.40;99.90;;;;;;5044468;28;20574;-62
2022/05/28 08:57:53;;;;;;;1.10;1.10;;;18.40;99.90;;;;;;5038143;28;20278;-62
2022/05/28 09:00:28;;;;;;;0.80;0.80;;;18.50;99.90;;;;;;5038959;28;20289;-61
2022/05/28 09:03:00;;;;;;;0.90;0.73;;;18.60;99.90;;;;;;5027310;28;20286;-62
2022/05/28 09:05:30;;;;;;;1.05;0.95;;;18.70;99.90;;;;;;5031742;28;20319;-64
2022/05/28 09:08:00;;;;;;;1.00;1.00;;;18.70;99.90;;;;;;5032516;28;20296;-63
2022/05/28 09:10:30;;;;;;;0.75;0.75;;;18.60;99.90;;;;;;5035447;28;20300;-63
2022/05/28 09:13:05;;;;;;;1.30;1.20;;;18.60;99.90;;;;;;5030639;28;21924;-64
2022/05/28 09:15:36;;;;;;;1.00;0.95;;;18.80;99.90;;;;;;5034497;28;20567;-63
2022/05/28 09:18:03;;;;;;;2.20;1.00;;;18.80;99.90;;;;;;5032415;28;20247;-63
2022/05/28 09:20:38;;;;;;;1.20;1.10;;;18.70;99.90;;;;;;5036119;28;20199;-64
2022/05/28 09:23:05;;;;;;;0.90;0.90;;;18.60;99.90;;;;;;5026838;28;20207;-63
2022/05/28 09:25:37;;;;;;;1.13;1.03;;;18.80;99.90;;;;;;5031676;28;20238;-63
2022/05/28 09:28:16;;;;;;;0.80;0.80;;;18.80;99.90;;;;;;5042041;28;20228;-63
2022/05/28 09:30:54;;;;;;;0.97;0.97;;;18.80;99.90;;;;;;5037935;28;20207;-64
2022/05/28 09:33:39;;;;;;;0.80;0.80;;;18.90;99.90;;;;;;5040590;28;20224;-63
2022/05/28 09:36:11;;;;;;;1.00;1.00;;;18.90;99.90;;;;;;5049045;28;20226;-63
2022/05/28 09:38:54;;;;;;;1.00;1.00;;;18.90;99.90;;;;;;5043849;28;20263;-63
2022/05/28 09:41:36;;;;;;;0.90;0.90;;;19.00;99.90;;;;;;5046879;28;20300;-63
2022/05/28 09:44:15;;;;;;;1.10;1.10;;;19.20;99.90;;;;;;5040257;28;20623;-63
2022/05/28 09:46:45;;;;;;;0.83;0.83;;;19.00;99.90;;;;;;5046518;28;20246;-64
2022/05/28 09:49:15;;;;;;;0.90;0.90;;;18.90;99.90;;;;;;5040098;28;20319;-65
2022/05/28 09:51:53;;;;;;;0.90;0.90;;;18.90;99.90;;;;;;5046098;28;20637;-62
2022/05/28 09:54:23;;;;;;;1.05;1.05;;;19.00;99.90;;;;;;5042241;28;20211;-65
2022/05/28 09:56:56;;;;;;;1.00;1.00;;;19.00;99.90;;;;;;5043830;28;20192;-62
2022/05/28 09:59:28;;;;;;;0.90;0.90;;;18.90;99.90;;;;;;5049442;28;20670;-63
2022/05/28 10:01:58;;;;;;;0.80;0.80;;;18.90;99.90;;;;;;5047309;28;20210;-64
2022/05/28 10:04:29;;;;;;;0.93;0.90;;;19.00;99.90;;;;;;5052139;28;20738;-63
2022/05/28 10:06:57;;;;;;;1.17;1.10;;;19.10;99.90;;;;;;5049348;28;20274;-63
2022/05/28 10:09:26;;;;;;;1.27;1.00;;;18.90;99.90;;;;;;5053428;28;20204;-64
2022/05/28 10:11:55;;;;;;;1.10;1.10;;;18.90;99.90;;;;;;5052250;28;20255;-66
2022/05/28 10:14:28;;;;;;;0.85;0.85;;;18.60;99.90;;;;;;5047461;28;20206;-63
2022/05/28 10:16:58;;;;;;;0.97;0.97;;;18.60;99.90;;;;;;5050796;28;20341;-63
2022/05/28 10:19:30;;;;;;;0.60;0.60;;;18.80;99.90;;;;;;5047798;28;20286;-65
2022/05/28 10:22:00;;;;;;;1.05;1.05;;;18.90;99.90;;;;;;5052782;28;20239;-62
2022/05/28 10:24:30;;;;;;;0.80;0.80;;;19.10;99.90;;;;;;5046024;28;20250;-63
2022/05/28 10:27:01;;;;;;;0.90;0.90;;;19.10;99.90;;;;;;5053597;28;20273;-62
2022/05/28 10:29:35;;;;;;;0.73;0.73;;;19.20;99.90;;;;;;5050251;28;20267;-63
2022/05/28 10:32:16;;;;;;;1.03;0.93;;;18.90;99.90;;;;;;5046376;28;20219;-62
2022/05/28 10:34:43;;;;;;;1.00;1.00;;;18.80;99.90;;;;;;5041836;28;20242;-63
2022/05/28 10:37:13;;;;;;;0.98;0.90;;;18.90;99.90;;;;;;5045315;28;20654;-63
2022/05/28 10:39:41;;;;;;;0.88;0.88;;;18.80;99.90;;;;;;5054127;28;20213;-64
2022/05/28 10:42:10;;;;;;;0.90;0.90;;;18.90;99.90;;;;;;5050188;28;20232;-64
2022/05/28 10:44:39;;;;;;;0.95;0.95;;;19.00;99.90;;;;;;5039319;28;20247;-63
2022/05/28 10:47:26;;;;;;;0.60;0.60;;;18.90;99.90;;;;;;5045747;28;20228;-65
2022/05/28 10:50:05;;;;;;;0.63;0.63;;;19.00;99.90;;;;;;5043512;28;20226;-64
2022/05/28 10:52:42;;;;;;;1.23;0.97;;;19.20;99.90;;;;;;5047042;28;20279;-63
2022/05/28 10:55:11;;;;;;;0.77;0.77;;;19.40;99.90;;;;;;5048649;28;20581;-62
2022/05/28 10:58:21;;;;;;;0.70;0.70;;;19.40;99.90;;;;;;5046013;28;20315;-64
2022/05/28 11:00:58;;;;;;;1.40;1.02;;;19.40;99.90;;;;;;5041604;28;20235;-63
2022/05/28 11:03:58;;;;;;;0.80;0.80;;;19.50;99.90;;;;;;5042711;28;20288;-63
2022/05/28 11:06:55;;;;;;;0.80;0.80;;;19.40;99.90;;;;;;5041174;28;20209;-64
2022/05/28 11:09:34;;;;;;;0.67;0.67;;;19.40;99.90;;;;;;5046330;28;20325;-63
2022/05/28 11:12:11;;;;;;;0.88;0.88;;;19.70;99.90;;;;;;5048966;28;20207;-63
2022/05/28 11:15:01;;;;;;;0.80;0.80;;;19.80;99.90;;;;;;5020370;28;20205;-63
2022/05/28 11:17:53;;;;;;;0.70;0.70;;;19.50;99.90;;;;;;5039219;28;20299;-63
2022/05/28 11:20:30;;;;;;;0.88;0.88;;;19.60;99.90;;;;;;5038598;28;20206;-64
2022/05/28 11:23:16;;;;;;;0.70;0.70;;;20.00;99.90;;;;;;5044028;28;21840;-64
2022/05/28 11:25:57;;;;;;;0.63;0.63;;;20.00;99.90;;;;;;5031694;28;20230;-64
2022/05/28 11:28:47;;;;;;;0.95;0.95;;;19.80;99.90;;;;;;5043596;28;20636;-63
2022/05/28 11:31:22;;;;;;;0.75;0.75;;;19.90;99.90;;;;;;5041589;28;20683;-65
2022/05/28 11:33:52;;;;;;;0.90;0.90;;;20.00;99.90;;;;;;5040336;28;20212;-64
2022/05/28 11:36:26;;;;;;;1.10;0.77;;;19.90;99.90;;;;;;5040866;28;20218;-65
2022/05/28 11:38:59;;;;;;;0.77;0.77;;;19.80;99.90;;;;;;5040082;28;20277;-63
2022/05/28 11:41:31;;;;;;;0.77;0.77;;;19.80;99.90;;;;;;5039465;28;20199;-65
2022/05/28 11:44:05;;;;;;;0.90;0.90;;;19.80;99.90;;;;;;5042750;28;20212;-64
2022/05/28 11:46:43;;;;;;;1.73;0.82;;;19.70;99.90;;;;;;5039473;28;20219;-64
2022/05/28 11:52:12;;;;;;;0.90;0.90;;;19.80;99.90;;;;;;5039187;28;20328;-63
2022/05/28 11:54:45;;;;;;;1.35;1.00;;;20.10;99.90;;;;;;5025281;28;20239;-64
2022/05/28 11:57:22;;;;;;;1.10;1.10;;;20.00;99.90;;;;;;5045019;28;20231;-62
2022/05/28 11:59:50;;;;;;;0.77;0.77;;;20.10;99.90;;;;;;5045339;28;20282;-64
2022/05/28 12:02:24;;;;;;;0.87;0.87;;;20.20;99.90;;;;;;5043769;28;20705;-64
2022/05/28 12:04:51;;;;;;;0.80;0.80;;;20.30;99.90;;;;;;5021701;28;20614;-65
2022/05/28 12:07:32;;;;;;;0.90;0.85;;;20.40;99.90;;;;;;5049899;28;20228;-63
2022/05/28 12:10:01;;;;;;;1.23;1.08;;;20.80;99.90;;;;;;5047302;28;20578;-64
2022/05/28 12:12:34;;;;;;;0.90;0.90;;;20.60;99.90;;;;;;5045983;28;20243;-64
2022/05/28 12:15:24;;;;;;;0.65;0.65;;;20.80;99.90;;;;;;5038111;28;20240;-64
2022/05/28 12:18:01;;;;;;;1.00;1.00;;;20.70;99.90;;;;;;5041554;28;20220;-63
2022/05/28 12:20:30;;;;;;;0.98;0.98;;;20.70;99.90;;;;;;5045397;28;20574;-64
2022/05/28 12:23:01;;;;;;;0.98;0.93;;;20.70;99.90;;;;;;5042741;28;20689;-65
2022/05/28 12:25:37;;;;;;;0.77;0.77;;;20.70;99.90;;;;;;5061723;28;20203;-63
2022/05/28 12:28:11;;;;;;;0.90;0.90;;;20.90;99.90;;;;;;5059359;28;20296;-63
2022/05/28 12:30:53;;;;;;;0.70;0.70;;;20.80;99.90;;;;;;5030910;28;20204;-64
2022/05/28 12:33:28;;;;;;;0.70;0.70;;;20.80;99.90;;;;;;5046933;28;20201;-62
2022/05/28 12:36:12;;;;;;;0.93;0.93;;;20.90;99.90;;;;;;5052903;28;20200;-64
2022/05/28 12:38:49;;;;;;;0.80;0.80;;;21.00;99.90;;;;;;5057339;28;20266;-62
2022/05/28 12:41:19;;;;;;;0.70;0.70;;;20.80;98.90;;;;;;5050636;28;20200;-64
2022/05/28 12:44:04;;;;;;;0.60;0.60;;;20.70;99.90;;;;;;5048192;28;20258;-64
2022/05/28 12:46:40;;;;;;;1.13;1.02;;;20.90;99.70;;;;;;5046885;28;20342;-62
2022/05/28 12:49:13;;;;;;;0.90;0.90;;;21.00;99.90;;;;;;5043922;28;20663;-62
2022/05/28 12:52:04;;;;;;;0.80;0.80;;;20.90;99.90;;;;;;5047115;28;20235;-64
2022/05/28 12:54:35;;;;;;;1.00;1.00;;;20.80;98.60;;;;;;5043596;28;20199;-64
2022/05/28 12:57:08;;;;;;;0.95;0.90;;;20.50;99.10;;;;;;5047113;28;20235;-63
2022/05/28 12:59:38;;;;;;;0.57;0.57;;;20.50;99.70;;;;;;5036441;28;20203;-63
2022/05/28 13:02:18;;;;;;;1.05;0.80;;;20.50;99.20;;;;;;5047061;28;20295;-65
2022/05/28 13:04:48;;;;;;;0.70;0.70;;;20.50;98.80;;;;;;5038656;28;20561;-64
2022/05/28 13:07:23;;;;;;;1.10;1.00;;;20.30;98.90;;;;;;5049478;28;20237;-64
2022/05/28 13:10:07;;;;;;;0.63;0.63;;;20.40;99.60;;;;;;5040456;28;20203;-64